sensor_id;sensor_type;location;lat;lon;timestamp;temperature;humidity
5246;DHT22;54412;51.206;6.888;2023-08-20T00:00:30;22.60;99.90
5246;DHT22;54412;51.206;6.888;2023-08-20T00:03:01;22.50;99.90
5246;DHT22;54412;51.206;6.888;2023-08-20T00:05:32;22.60;99.90
5246;DHT22;54412;51.206;6.888;2023-08-20T00:07:58;22.50;99.90
5246;DHT22;54412;51.206;6.888;2023-08-20T00:10:24;22.60;99.90
5246;DHT22;54412;51.206;6.888;2023-08-20T00:12:49;22.60;99.90
5246;DHT22;54412;51.206;6.888;2023-08-20T00:15:15;22.70;99.90
5246;DHT22;54412;51.206;6.888;2023-08-20T00:17:41;22.70;99.90
5246;DHT22;54412;51.206;6.888;2023-08-20T00:20:09;22.60;99.90
5246;DHT22;54412;51.206;6.888;2023-08-20T00:22:42;22.60;99.90
5246;DHT22;54412;51.206;6.888;2023-08-20T00:25:13;22.60;99.90
5246;DHT22;54412;51.206;6.888;2023-08-20T00:27:41;22.60;99.90
5246;DHT22;54412;51.206;6.888;2023-08-20T00:30:08;22.50;99.90
5246;DHT22;54412;51.206;6.888;2023-08-20T00:32:35;22.50;99.90
5246;DHT22;54412;51.206;6.888;2023-08-20T00:35:02;22.50;99.90
5246;DHT22;54412;51.206;6.888;2023-08-20T00:37:29;22.50;99.90
5246;DHT22;54412;51.206;6.888;2023-08-20T00:39:56;22.60;99.90
5246;DHT22;54412;51.206;6.888;2023-08-20T00:42:22;22.60;99.90
5246;DHT22;54412;51.206;6.888;2023-08-20T00:44:51;22.60;99.90
5246;DHT22;54412;51.206;6.888;2023-08-20T00:47:18;22.60;99.90
5246;DHT22;54412;51.206;6.888;2023-08-20T00:49:46;22.60;99.90
5246;DHT22;54412;51.206;6.888;2023-08-20T00:52:14;22.60;99.90
5246;DHT22;54412;51.206;6.888;2023-08-20T00:54:41;22.50;99.90
5246;DHT22;54412;51.206;6.888;2023-08-20T00:57:10;22.50;99.90
5246;DHT22;54412;51.206;6.888;2023-08-20T00:59:38;22.50;99.90
5246;DHT22;54412;51.206;6.888;2023-08-20T01:02:04;22.50;99.90
5246;DHT22;54412;51.206;6.888;2023-08-20T01:04:30;22.50;99.90
5246;DHT22;54412;51.206;6.888;2023-08-20T01:10:09;22.40;99.90
5246;DHT22;54412;51.206;6.888;2023-08-20T01:12:38;22.40;99.90
5246;DHT22;54412;51.206;6.888;2023-08-20T01:15:05;22.40;99.90
5246;DHT22;54412;51.206;6.888;2023-08-20T01:17:31;22.40;99.90
5246;DHT22;54412;51.206;6.888;2023-08-20T01:19:57;22.50;99.90
5246;DHT22;54412;51.206;6.888;2023-08-20T01:22:54;22.50;99.90
5246;DHT22;54412;51.206;6.888;2023-08-20T01:25:56;22.50;99.90
5246;DHT22;54412;51.206;6.888;2023-08-20T01:28:58;22.50;99.90
5246;DHT22;54412;51.206;6.888;2023-08-20T01:31:25;22.50;99.90
5246;DHT22;54412;51.206;6.888;2023-08-20T01:33:52;22.40;99.90
5246;DHT22;54412;51.206;6.888;2023-08-20T01:36:18;22.30;99.90
5246;DHT22;54412;51.206;6.888;2023-08-20T01:38:43;22.30;99.90
5246;DHT22;54412;51.206;6.888;2023-08-20T01:41:09;22.30;99.90
5246;DHT22;54412;51.206;6.888;2023-08-20T01:43:35;22.30;99.90
5246;DHT22;54412;51.206;6.888;2023-08-20T01:46:00;22.30;99.90
5246;DHT22;54412;51.206;6.888;2023-08-20T01:48:26;22.20;99.90
5246;DHT22;54412;51.206;6.888;2023-08-20T01:50:52;22.30;99.90
5246;DHT22;54412;51.206;6.888;2023-08-20T01:53:17;22.30;99.90
5246;DHT22;54412;51.206;6.888;2023-08-20T01:55:43;22.30;99.90
5246;DHT22;54412;51.206;6.888;2023-08-20T01:58:09;22.30;99.90
5246;DHT22;54412;51.206;6.888;2023-08-20T02:00:34;22.30;99.90
5246;DHT22;54412;51.206;6.888;2023-08-20T02:03:00;22.30;99.90
5246;DHT22;54412;51.206;6.888;2023-08-20T02:05:26;22.20;99.90
5246;DHT22;54412;51.206;6.888;2023-08-20T02:07:53;22.20;99.90
5246;DHT22;54412;51.206;6.888;2023-08-20T02:10:19;22.20;99.90
5246;DHT22;54412;51.206;6.888;2023-08-20T02:12:46;22.30;99.90
5246;DHT22;54412;51.206;6.888;2023-08-20T02:15:12;22.30;99.90
5246;DHT22;54412;51.206;6.888;2023-08-20T02:17:37;22.30;99.90
5246;DHT22;54412;51.206;6.888;2023-08-20T02:20:04;22.30;99.90
5246;DHT22;54412;51.206;6.888;2023-08-20T02:22:30;22.30;99.90
5246;DHT22;54412;51.206;6.888;2023-08-20T02:24:56;22.20;99.90
5246;DHT22;54412;51.206;6.888;2023-08-20T02:27:22;22.20;99.90
5246;DHT22;54412;51.206;6.888;2023-08-20T02:29:48;22.20;99.90
5246;DHT22;54412;51.206;6.888;2023-08-20T02:32:14;22.20;99.90
5246;DHT22;54412;51.206;6.888;2023-08-20T02:34:39;22.10;99.90
5246;DHT22;54412;51.206;6.888;2023-08-20T02:37:05;22.20;99.90
5246;DHT22;54412;51.206;6.888;2023-08-20T02:39:31;22.20;99.90
5246;DHT22;54412;51.206;6.888;2023-08-20T02:41:57;22.00;99.90
5246;DHT22;54412;51.206;6.888;2023-08-20T02:44:23;22.00;99.90
5246;DHT22;54412;51.206;6.888;2023-08-20T02:46:49;22.00;99.90
5246;DHT22;54412;51.206;6.888;2023-08-20T02:49:14;22.00;99.90
5246;DHT22;54412;51.206;6.888;2023-08-20T02:51:42;22.00;99.90
5246;DHT22;54412;51.206;6.888;2023-08-20T02:54:08;22.10;99.90
5246;DHT22;54412;51.206;6.888;2023-08-20T02:56:34;22.00;99.90
5246;DHT22;54412;51.206;6.888;2023-08-20T02:59:00;22.00;99.90
5246;DHT22;54412;51.206;6.888;2023-08-20T03:01:26;22.00;99.90
5246;DHT22;54412;51.206;6.888;2023-08-20T03:03:52;22.00;99.90
5246;DHT22;54412;51.206;6.888;2023-08-20T03:06:18;22.00;99.90
5246;DHT22;54412;51.206;6.888;2023-08-20T03:08:43;22.00;99.90
5246;DHT22;54412;51.206;6.888;2023-08-20T03:11:09;22.00;99.90
5246;DHT22;54412;51.206;6.888;2023-08-20T03:13:35;21.90;99.90
5246;DHT22;54412;51.206;6.888;2023-08-20T03:16:01;21.90;99.90
5246;DHT22;54412;51.206;6.888;2023-08-20T03:18:27;21.80;99.90
5246;DHT22;54412;51.206;6.888;2023-08-20T03:20:54;21.90;99.90
5246;DHT22;54412;51.206;6.888;2023-08-20T03:23:22;21.90;99.90
5246;DHT22;54412;51.206;6.888;2023-08-20T03:25:48;21.90;99.90
5246;DHT22;54412;51.206;6.888;2023-08-20T03:28:14;21.90;99.90
5246;DHT22;54412;51.206;6.888;2023-08-20T03:30:40;22.00;99.90
5246;DHT22;54412;51.206;6.888;2023-08-20T03:33:06;21.90;99.90
5246;DHT22;54412;51.206;6.888;2023-08-20T03:35:32;22.00;99.90
5246;DHT22;54412;51.206;6.888;2023-08-20T03:37:57;21.90;99.90
5246;DHT22;54412;51.206;6.888;2023-08-20T03:40:23;21.90;99.90
5246;DHT22;54412;51.206;6.888;2023-08-20T03:42:49;22.00;99.90
5246;DHT22;54412;51.206;6.888;2023-08-20T03:45:15;21.90;99.90
5246;DHT22;54412;51.206;6.888;2023-08-20T03:47:40;21.90;99.90
5246;DHT22;54412;51.206;6.888;2023-08-20T03:50:09;22.00;99.90
5246;DHT22;54412;51.206;6.888;2023-08-20T03:52:35;22.00;99.90
5246;DHT22;54412;51.206;6.888;2023-08-20T03:55:01;22.00;99.90
5246;DHT22;54412;51.206;6.888;2023-08-20T03:57:28;22.00;99.90
5246;DHT22;54412;51.206;6.888;2023-08-20T03:59:53;21.90;99.90
5246;DHT22;54412;51.206;6.888;2023-08-20T04:02:19;21.90;99.90
5246;DHT22;54412;51.206;6.888;2023-08-20T04:04:44;21.90;99.90
5246;DHT22;54412;51.206;6.888;2023-08-20T04:07:10;21.90;99.90
5246;DHT22;54412;51.206;6.888;2023-08-20T04:09:36;21.90;99.90
5246;DHT22;54412;51.206;6.888;2023-08-20T04:12:03;21.90;99.90
5246;DHT22;54412;51.206;6.888;2023-08-20T04:14:29;21.90;99.90
5246;DHT22;54412;51.206;6.888;2023-08-20T04:16:55;21.90;99.90
5246;DHT22;54412;51.206;6.888;2023-08-20T04:19:20;21.90;99.90
5246;DHT22;54412;51.206;6.888;2023-08-20T04:21:46;21.80;99.90
5246;DHT22;54412;51.206;6.888;2023-08-20T04:24:12;21.80;99.90
5246;DHT22;54412;51.206;6.888;2023-08-20T04:26:37;21.80;99.90
5246;DHT22;54412;51.206;6.888;2023-08-20T04:29:03;21.80;99.90
5246;DHT22;54412;51.206;6.888;2023-08-20T04:31:29;21.70;99.90
5246;DHT22;54412;51.206;6.888;2023-08-20T04:33:54;21.80;99.90
5246;DHT22;54412;51.206;6.888;2023-08-20T04:36:20;21.80;99.90
5246;DHT22;54412;51.206;6.888;2023-08-20T04:38:46;21.70;99.90
5246;DHT22;54412;51.206;6.888;2023-08-20T04:41:11;21.70;99.90
5246;DHT22;54412;51.206;6.888;2023-08-20T04:43:37;21.70;99.90
5246;DHT22;54412;51.206;6.888;2023-08-20T04:46:03;21.70;99.90
5246;DHT22;54412;51.206;6.888;2023-08-20T04:48:28;21.60;99.90
5246;DHT22;54412;51.206;6.888;2023-08-20T04:50:54;21.50;99.90
5246;DHT22;54412;51.206;6.888;2023-08-20T04:53:20;21.60;99.90
5246;DHT22;54412;51.206;6.888;2023-08-20T04:55:45;21.60;99.90
5246;DHT22;54412;51.206;6.888;2023-08-20T04:58:11;21.60;99.90
5246;DHT22;54412;51.206;6.888;2023-08-20T05:00:36;21.60;99.90
5246;DHT22;54412;51.206;6.888;2023-08-20T05:03:02;21.70;99.90
5246;DHT22;54412;51.206;6.888;2023-08-20T05:05:28;21.70;99.90
5246;DHT22;54412;51.206;6.888;2023-08-20T05:07:54;21.70;99.90
5246;DHT22;54412;51.206;6.888;2023-08-20T05:10:19;21.70;99.90
5246;DHT22;54412;51.206;6.888;2023-08-20T05:12:45;21.60;99.90
5246;DHT22;54412;51.206;6.888;2023-08-20T05:15:11;21.60;99.90
5246;DHT22;54412;51.206;6.888;2023-08-20T05:17:37;21.60;99.90
5246;DHT22;54412;51.206;6.888;2023-08-20T05:20:03;21.60;99.90
5246;DHT22;54412;51.206;6.888;2023-08-20T05:22:29;21.60;99.90
5246;DHT22;54412;51.206;6.888;2023-08-20T05:24:54;21.60;99.90
5246;DHT22;54412;51.206;6.888;2023-08-20T05:27:20;21.70;99.90
5246;DHT22;54412;51.206;6.888;2023-08-20T05:29:46;21.60;99.90
5246;DHT22;54412;51.206;6.888;2023-08-20T05:32:12;21.60;99.90
5246;DHT22;54412;51.206;6.888;2023-08-20T05:34:38;21.60;99.90
5246;DHT22;54412;51.206;6.888;2023-08-20T05:37:03;21.70;99.90
5246;DHT22;54412;51.206;6.888;2023-08-20T05:39:41;21.70;99.90
5246;DHT22;54412;51.206;6.888;2023-08-20T05:42:08;21.70;99.90
5246;DHT22;54412;51.206;6.888;2023-08-20T05:44:34;21.80;99.90
5246;DHT22;54412;51.206;6.888;2023-08-20T05:46:59;21.80;99.90
5246;DHT22;54412;51.206;6.888;2023-08-20T05:49:26;21.80;99.90
5246;DHT22;54412;51.206;6.888;2023-08-20T05:51:52;21.80;99.90
5246;DHT22;54412;51.206;6.888;2023-08-20T05:54:18;21.70;99.90
5246;DHT22;54412;51.206;6.888;2023-08-20T05:56:44;21.70;99.90
5246;DHT22;54412;51.206;6.888;2023-08-20T05:59:09;21.80;99.90
5246;DHT22;54412;51.206;6.888;2023-08-20T06:01:35;21.80;99.90
5246;DHT22;54412;51.206;6.888;2023-08-20T06:04:01;21.90;99.90
5246;DHT22;54412;51.206;6.888;2023-08-20T06:06:27;21.90;99.90
5246;DHT22;54412;51.206;6.888;2023-08-20T06:08:53;21.90;99.90
5246;DHT22;54412;51.206;6.888;2023-08-20T06:11:20;21.90;99.90
5246;DHT22;54412;51.206;6.888;2023-08-20T06:13:46;21.90;99.90
5246;DHT22;54412;51.206;6.888;2023-08-20T06:16:12;21.90;99.90
5246;DHT22;54412;51.206;6.888;2023-08-20T06:18:37;21.90;99.90
5246;DHT22;54412;51.206;6.888;2023-08-20T06:21:03;21.90;99.90
5246;DHT22;54412;51.206;6.888;2023-08-20T06:23:29;21.90;99.90
5246;DHT22;54412;51.206;6.888;2023-08-20T06:25:55;22.00;99.90
5246;DHT22;54412;51.206;6.888;2023-08-20T06:28:21;22.20;99.90
5246;DHT22;54412;51.206;6.888;2023-08-20T06:30:46;22.30;99.90
5246;DHT22;54412;51.206;6.888;2023-08-20T06:33:12;22.20;99.90
5246;DHT22;54412;51.206;6.888;2023-08-20T06:35:38;22.30;99.90
5246;DHT22;54412;51.206;6.888;2023-08-20T06:38:06;22.40;99.90
5246;DHT22;54412;51.206;6.888;2023-08-20T06:40:33;22.50;99.90
5246;DHT22;54412;51.206;6.888;2023-08-20T06:42:58;22.60;99.90
5246;DHT22;54412;51.206;6.888;2023-08-20T06:45:24;22.70;99.90
5246;DHT22;54412;51.206;6.888;2023-08-20T06:47:50;22.80;99.90
5246;DHT22;54412;51.206;6.888;2023-08-20T06:50:15;22.90;99.90
5246;DHT22;54412;51.206;6.888;2023-08-20T06:52:42;23.00;99.90
5246;DHT22;54412;51.206;6.888;2023-08-20T06:55:08;23.10;99.90
5246;DHT22;54412;51.206;6.888;2023-08-20T06:57:34;23.10;99.90
5246;DHT22;54412;51.206;6.888;2023-08-20T06:59:59;23.20;99.90
5246;DHT22;54412;51.206;6.888;2023-08-20T07:02:25;23.30;99.90
5246;DHT22;54412;51.206;6.888;2023-08-20T07:04:51;23.40;99.90
5246;DHT22;54412;51.206;6.888;2023-08-20T07:07:17;23.50;99.90
5246;DHT22;54412;51.206;6.888;2023-08-20T07:09:42;23.60;99.90
5246;DHT22;54412;51.206;6.888;2023-08-20T07:12:08;23.70;99.90
5246;DHT22;54412;51.206;6.888;2023-08-20T07:14:34;23.70;99.90
5246;DHT22;54412;51.206;6.888;2023-08-20T07:16:59;23.70;99.90
5246;DHT22;54412;51.206;6.888;2023-08-20T07:19:28;23.70;99.90
5246;DHT22;54412;51.206;6.888;2023-08-20T07:21:54;23.70;99.90
5246;DHT22;54412;51.206;6.888;2023-08-20T07:24:20;23.90;99.90
5246;DHT22;54412;51.206;6.888;2023-08-20T07:26:53;23.90;99.90
5246;DHT22;54412;51.206;6.888;2023-08-20T07:29:24;24.00;99.90
5246;DHT22;54412;51.206;6.888;2023-08-20T07:31:50;24.10;99.90
5246;DHT22;54412;51.206;6.888;2023-08-20T07:34:16;24.10;99.90
5246;DHT22;54412;51.206;6.888;2023-08-20T07:36:42;24.10;99.90
5246;DHT22;54412;51.206;6.888;2023-08-20T07:39:07;24.30;99.90
5246;DHT22;54412;51.206;6.888;2023-08-20T07:41:34;24.40;99.90
5246;DHT22;54412;51.206;6.888;2023-08-20T07:43:59;24.40;99.90
5246;DHT22;54412;51.206;6.888;2023-08-20T07:46:25;24.60;99.90
5246;DHT22;54412;51.206;6.888;2023-08-20T07:48:51;24.70;99.90
5246;DHT22;54412;51.206;6.888;2023-08-20T07:51:17;24.80;99.90
5246;DHT22;54412;51.206;6.888;2023-08-20T07:53:42;24.70;99.90
5246;DHT22;54412;51.206;6.888;2023-08-20T07:56:08;24.80;99.90
5246;DHT22;54412;51.206;6.888;2023-08-20T07:58:34;25.00;99.90
5246;DHT22;54412;51.206;6.888;2023-08-20T08:01:00;25.20;99.90
5246;DHT22;54412;51.206;6.888;2023-08-20T08:03:26;25.20;99.90
5246;DHT22;54412;51.206;6.888;2023-08-20T08:05:52;25.20;99.90
5246;DHT22;54412;51.206;6.888;2023-08-20T08:08:20;25.20;99.90
5246;DHT22;54412;51.206;6.888;2023-08-20T08:10:47;25.10;99.90
5246;DHT22;54412;51.206;6.888;2023-08-20T08:13:14;25.30;99.90
5246;DHT22;54412;51.206;6.888;2023-08-20T08:15:41;25.30;99.90
5246;DHT22;54412;51.206;6.888;2023-08-20T08:18:07;25.30;99.90
5246;DHT22;54412;51.206;6.888;2023-08-20T08:20:33;25.20;99.90
5246;DHT22;54412;51.206;6.888;2023-08-20T08:23:00;25.20;99.90
5246;DHT22;54412;51.206;6.888;2023-08-20T08:25:26;25.50;99.90
5246;DHT22;54412;51.206;6.888;2023-08-20T08:27:52;25.50;99.90
5246;DHT22;54412;51.206;6.888;2023-08-20T08:30:18;25.50;99.90
5246;DHT22;54412;51.206;6.888;2023-08-20T08:32:44;25.60;99.90
5246;DHT22;54412;51.206;6.888;2023-08-20T08:35:10;25.70;99.90
5246;DHT22;54412;51.206;6.888;2023-08-20T08:37:36;25.90;99.90
5246;DHT22;54412;51.206;6.888;2023-08-20T08:40:02;26.20;99.90
5246;DHT22;54412;51.206;6.888;2023-08-20T08:42:32;26.30;99.90
5246;DHT22;54412;51.206;6.888;2023-08-20T08:45:02;26.30;99.90
5246;DHT22;54412;51.206;6.888;2023-08-20T08:47:29;26.30;99.90
5246;DHT22;54412;51.206;6.888;2023-08-20T08:49:56;26.20;99.90
5246;DHT22;54412;51.206;6.888;2023-08-20T08:52:25;26.40;99.90
5246;DHT22;54412;51.206;6.888;2023-08-20T08:54:52;26.50;99.90
5246;DHT22;54412;51.206;6.888;2023-08-20T08:57:18;26.40;99.90
5246;DHT22;54412;51.206;6.888;2023-08-20T08:59:44;26.50;99.90
5246;DHT22;54412;51.206;6.888;2023-08-20T09:02:11;26.50;99.90
5246;DHT22;54412;51.206;6.888;2023-08-20T09:04:39;26.60;99.90
5246;DHT22;54412;51.206;6.888;2023-08-20T09:07:13;26.70;99.90
5246;DHT22;54412;51.206;6.888;2023-08-20T09:09:46;26.90;99.90
5246;DHT22;54412;51.206;6.888;2023-08-20T09:12:16;26.90;99.90
5246;DHT22;54412;51.206;6.888;2023-08-20T09:14:50;26.90;99.90
5246;DHT22;54412;51.206;6.888;2023-08-20T09:17:17;26.90;99.90
5246;DHT22;54412;51.206;6.888;2023-08-20T09:19:45;27.10;99.90
5246;DHT22;54412;51.206;6.888;2023-08-20T09:22:12;26.80;99.90
5246;DHT22;54412;51.206;6.888;2023-08-20T09:24:45;26.90;99.90
5246;DHT22;54412;51.206;6.888;2023-08-20T09:27:13;27.10;99.90
5246;DHT22;54412;51.206;6.888;2023-08-20T09:29:46;27.20;99.90
5246;DHT22;54412;51.206;6.888;2023-08-20T09:32:24;27.50;99.90
5246;DHT22;54412;51.206;6.888;2023-08-20T09:34:52;27.70;99.90
5246;DHT22;54412;51.206;6.888;2023-08-20T09:37:21;27.80;99.90
5246;DHT22;54412;51.206;6.888;2023-08-20T09:39:48;28.00;99.90
5246;DHT22;54412;51.206;6.888;2023-08-20T09:42:15;27.90;99.90
5246;DHT22;54412;51.206;6.888;2023-08-20T09:44:43;28.00;99.90
5246;DHT22;54412;51.206;6.888;2023-08-20T09:47:15;28.00;99.90
5246;DHT22;54412;51.206;6.888;2023-08-20T09:49:43;28.00;99.90
5246;DHT22;54412;51.206;6.888;2023-08-20T09:52:11;28.10;99.90
5246;DHT22;54412;51.206;6.888;2023-08-20T09:57:39;28.50;99.90
5246;DHT22;54412;51.206;6.888;2023-08-20T10:00:07;28.60;99.90
5246;DHT22;54412;51.206;6.888;2023-08-20T10:02:38;28.40;99.90
5246;DHT22;54412;51.206;6.888;2023-08-20T10:05:09;28.40;99.90
5246;DHT22;54412;51.206;6.888;2023-08-20T10:07:37;28.40;99.90
5246;DHT22;54412;51.206;6.888;2023-08-20T10:10:05;28.00;99.90
5246;DHT22;54412;51.206;6.888;2023-08-20T10:12:33;27.80;99.90
5246;DHT22;54412;51.206;6.888;2023-08-20T10:15:00;27.70;99.90
5246;DHT22;54412;51.206;6.888;2023-08-20T10:17:32;27.70;99.90
5246;DHT22;54412;51.206;6.888;2023-08-20T10:20:00;27.50;99.90
5246;DHT22;54412;51.206;6.888;2023-08-20T10:22:36;27.80;99.90
5246;DHT22;54412;51.206;6.888;2023-08-20T10:25:09;28.10;99.90
5246;DHT22;54412;51.206;6.888;2023-08-20T10:27:41;28.10;99.90
5246;DHT22;54412;51.206;6.888;2023-08-20T10:30:16;27.90;99.90
5246;DHT22;54412;51.206;6.888;2023-08-20T10:32:51;27.70;99.90
5246;DHT22;54412;51.206;6.888;2023-08-20T10:35:18;27.60;99.90
5246;DHT22;54412;51.206;6.888;2023-08-20T10:38:07;27.80;99.90
5246;DHT22;54412;51.206;6.888;2023-08-20T10:40:57;27.60;99.90
5246;DHT22;54412;51.206;6.888;2023-08-20T10:46:04;27.50;99.90
5246;DHT22;54412;51.206;6.888;2023-08-20T10:48:32;27.70;99.90
5246;DHT22;54412;51.206;6.888;2023-08-20T10:51:11;28.00;99.90
5246;DHT22;54412;51.206;6.888;2023-08-20T10:53:43;28.00;99.90
5246;DHT22;54412;51.206;6.888;2023-08-20T10:56:15;27.90;99.90
5246;DHT22;54412;51.206;6.888;2023-08-20T10:58:44;28.00;99.90
5246;DHT22;54412;51.206;6.888;2023-08-20T11:01:15;27.70;99.90
5246;DHT22;54412;51.206;6.888;2023-08-20T11:03:46;27.60;99.90
5246;DHT22;54412;51.206;6.888;2023-08-20T11:06:14;27.40;99.90
5246;DHT22;54412;51.206;6.888;2023-08-20T11:08:41;27.50;99.90
5246;DHT22;54412;51.206;6.888;2023-08-20T11:11:08;27.90;99.90
5246;DHT22;54412;51.206;6.888;2023-08-20T11:13:34;28.20;99.90
5246;DHT22;54412;51.206;6.888;2023-08-20T11:16:04;28.10;99.90
5246;DHT22;54412;51.206;6.888;2023-08-20T11:18:34;28.30;99.90
5246;DHT22;54412;51.206;6.888;2023-08-20T11:21:01;28.60;99.90
5246;DHT22;54412;51.206;6.888;2023-08-20T11:23:28;28.70;99.90
5246;DHT22;54412;51.206;6.888;2023-08-20T11:25:53;28.70;99.90
5246;DHT22;54412;51.206;6.888;2023-08-20T11:28:20;28.50;99.90
5246;DHT22;54412;51.206;6.888;2023-08-20T11:30:46;28.40;99.90
5246;DHT22;54412;51.206;6.888;2023-08-20T11:33:12;28.50;99.90
5246;DHT22;54412;51.206;6.888;2023-08-20T11:35:38;28.90;99.90
5246;DHT22;54412;51.206;6.888;2023-08-20T11:38:04;29.10;99.90
5246;DHT22;54412;51.206;6.888;2023-08-20T11:40:30;29.30;99.90
5246;DHT22;54412;51.206;6.888;2023-08-20T11:42:55;29.50;99.90
5246;DHT22;54412;51.206;6.888;2023-08-20T11:45:21;29.40;99.90
5246;DHT22;54412;51.206;6.888;2023-08-20T11:47:47;28.90;99.90
5246;DHT22;54412;51.206;6.888;2023-08-20T11:50:13;28.60;99.90
5246;DHT22;54412;51.206;6.888;2023-08-20T11:52:39;28.30;99.90
5246;DHT22;54412;51.206;6.888;2023-08-20T11:55:05;28.20;99.90
5246;DHT22;54412;51.206;6.888;2023-08-20T11:57:31;28.40;99.90
5246;DHT22;54412;51.206;6.888;2023-08-20T12:00:03;28.50;99.90
5246;DHT22;54412;51.206;6.888;2023-08-20T12:02:30;28.90;99.90
5246;DHT22;54412;51.206;6.888;2023-08-20T12:04:56;29.40;99.90
5246;DHT22;54412;51.206;6.888;2023-08-20T12:07:27;29.50;99.90
5246;DHT22;54412;51.206;6.888;2023-08-20T12:09:55;29.20;99.90
5246;DHT22;54412;51.206;6.888;2023-08-20T12:12:22;28.70;99.90
5246;DHT22;54412;51.206;6.888;2023-08-20T12:14:48;28.50;99.90
5246;DHT22;54412;51.206;6.888;2023-08-20T12:17:20;28.30;99.90
5246;DHT22;54412;51.206;6.888;2023-08-20T12:19:46;28.10;99.90
5246;DHT22;54412;51.206;6.888;2023-08-20T12:22:12;28.10;99.90
5246;DHT22;54412;51.206;6.888;2023-08-20T12:24:38;27.90;99.90
5246;DHT22;54412;51.206;6.888;2023-08-20T12:27:04;27.90;99.90
5246;DHT22;54412;51.206;6.888;2023-08-20T12:29:30;28.00;99.90
5246;DHT22;54412;51.206;6.888;2023-08-20T12:31:55;28.10;99.90
5246;DHT22;54412;51.206;6.888;2023-08-20T12:34:21;28.20;99.90
5246;DHT22;54412;51.206;6.888;2023-08-20T12:36:48;28.50;99.90
5246;DHT22;54412;51.206;6.888;2023-08-20T12:39:14;28.90;99.90
5246;DHT22;54412;51.206;6.888;2023-08-20T12:41:39;29.10;99.90
5246;DHT22;54412;51.206;6.888;2023-08-20T12:44:05;29.20;99.90
5246;DHT22;54412;51.206;6.888;2023-08-20T12:46:31;29.40;99.90
5246;DHT22;54412;51.206;6.888;2023-08-20T12:48:57;29.40;99.90
5246;DHT22;54412;51.206;6.888;2023-08-20T12:51:23;29.30;99.90
5246;DHT22;54412;51.206;6.888;2023-08-20T12:53:48;28.90;99.90
5246;DHT22;54412;51.206;6.888;2023-08-20T12:56:14;28.90;99.90
5246;DHT22;54412;51.206;6.888;2023-08-20T12:58:41;29.10;99.90
5246;DHT22;54412;51.206;6.888;2023-08-20T13:01:07;29.20;99.90
5246;DHT22;54412;51.206;6.888;2023-08-20T13:03:34;29.50;99.90
5246;DHT22;54412;51.206;6.888;2023-08-20T13:06:00;29.20;99.90
5246;DHT22;54412;51.206;6.888;2023-08-20T13:08:26;28.80;99.90
5246;DHT22;54412;51.206;6.888;2023-08-20T13:10:56;28.40;99.90
5246;DHT22;54412;51.206;6.888;2023-08-20T13:13:24;28.30;99.90
5246;DHT22;54412;51.206;6.888;2023-08-20T13:15:52;28.20;99.90
5246;DHT22;54412;51.206;6.888;2023-08-20T13:18:19;28.10;99.90
5246;DHT22;54412;51.206;6.888;2023-08-20T13:20:45;28.00;99.90
5246;DHT22;54412;51.206;6.888;2023-08-20T13:23:11;28.20;99.90
5246;DHT22;54412;51.206;6.888;2023-08-20T13:25:36;28.10;99.90
5246;DHT22;54412;51.206;6.888;2023-08-20T13:28:02;28.10;99.90
5246;DHT22;54412;51.206;6.888;2023-08-20T13:30:28;28.10;99.90
5246;DHT22;54412;51.206;6.888;2023-08-20T13:32:54;28.30;99.90
5246;DHT22;54412;51.206;6.888;2023-08-20T13:35:20;28.40;99.90
5246;DHT22;54412;51.206;6.888;2023-08-20T13:37:46;28.40;99.90
5246;DHT22;54412;51.206;6.888;2023-08-20T13:40:12;28.10;99.90
5246;DHT22;54412;51.206;6.888;2023-08-20T13:42:37;28.00;99.90
5246;DHT22;54412;51.206;6.888;2023-08-20T13:45:03;27.90;99.90
5246;DHT22;54412;51.206;6.888;2023-08-20T13:47:29;27.80;99.90
5246;DHT22;54412;51.206;6.888;2023-08-20T13:49:55;27.80;99.90
5246;DHT22;54412;51.206;6.888;2023-08-20T13:52:21;27.70;99.90
5246;DHT22;54412;51.206;6.888;2023-08-20T13:54:47;27.60;99.90
5246;DHT22;54412;51.206;6.888;2023-08-20T13:57:12;27.60;99.90
5246;DHT22;54412;51.206;6.888;2023-08-20T13:59:38;27.60;99.90
5246;DHT22;54412;51.206;6.888;2023-08-20T14:02:04;27.60;99.90
5246;DHT22;54412;51.206;6.888;2023-08-20T14:04:30;27.50;99.90
5246;DHT22;54412;51.206;6.888;2023-08-20T14:06:56;27.50;99.90
5246;DHT22;54412;51.206;6.888;2023-08-20T14:09:22;27.40;99.90
5246;DHT22;54412;51.206;6.888;2023-08-20T14:11:48;27.40;99.90
5246;DHT22;54412;51.206;6.888;2023-08-20T14:14:13;27.40;99.90
5246;DHT22;54412;51.206;6.888;2023-08-20T14:16:39;27.40;99.90
5246;DHT22;54412;51.206;6.888;2023-08-20T14:19:05;27.40;99.90
5246;DHT22;54412;51.206;6.888;2023-08-20T14:21:31;27.50;99.90
5246;DHT22;54412;51.206;6.888;2023-08-20T14:23:57;27.90;99.90
5246;DHT22;54412;51.206;6.888;2023-08-20T14:26:23;28.30;99.90
5246;DHT22;54412;51.206;6.888;2023-08-20T14:28:49;28.50;99.90
5246;DHT22;54412;51.206;6.888;2023-08-20T14:31:15;28.90;99.90
5246;DHT22;54412;51.206;6.888;2023-08-20T14:33:40;29.10;99.90
5246;DHT22;54412;51.206;6.888;2023-08-20T14:36:06;29.30;99.90
5246;DHT22;54412;51.206;6.888;2023-08-20T14:38:32;29.50;99.90
5246;DHT22;54412;51.206;6.888;2023-08-20T14:41:01;29.50;99.90
5246;DHT22;54412;51.206;6.888;2023-08-20T14:43:29;29.50;99.90
5246;DHT22;54412;51.206;6.888;2023-08-20T14:45:55;29.60;99.90
5246;DHT22;54412;51.206;6.888;2023-08-20T14:48:22;29.60;99.90
5246;DHT22;54412;51.206;6.888;2023-08-20T14:50:49;29.60;99.90
5246;DHT22;54412;51.206;6.888;2023-08-20T14:53:15;29.70;99.90
5246;DHT22;54412;51.206;6.888;2023-08-20T14:55:40;29.60;99.90
5246;DHT22;54412;51.206;6.888;2023-08-20T14:58:06;29.50;99.90
5246;DHT22;54412;51.206;6.888;2023-08-20T15:00:33;29.60;99.90
5246;DHT22;54412;51.206;6.888;2023-08-20T15:02:59;29.50;99.90
5246;DHT22;54412;51.206;6.888;2023-08-20T15:05:26;29.50;99.90
5246;DHT22;54412;51.206;6.888;2023-08-20T15:07:52;29.40;99.90
5246;DHT22;54412;51.206;6.888;2023-08-20T15:10:17;29.30;99.90
5246;DHT22;54412;51.206;6.888;2023-08-20T15:12:44;29.30;99.90
5246;DHT22;54412;51.206;6.888;2023-08-20T15:15:10;29.20;99.90
5246;DHT22;54412;51.206;6.888;2023-08-20T15:17:36;29.00;99.90
5246;DHT22;54412;51.206;6.888;2023-08-20T15:20:04;28.90;99.90
5246;DHT22;54412;51.206;6.888;2023-08-20T15:22:32;28.90;99.90
5246;DHT22;54412;51.206;6.888;2023-08-20T15:24:58;28.90;99.90
5246;DHT22;54412;51.206;6.888;2023-08-20T15:27:24;28.90;99.90
5246;DHT22;54412;51.206;6.888;2023-08-20T15:29:51;29.00;99.90
5246;DHT22;54412;51.206;6.888;2023-08-20T15:32:17;28.90;99.90
5246;DHT22;54412;51.206;6.888;2023-08-20T15:34:43;28.80;99.90
5246;DHT22;54412;51.206;6.888;2023-08-20T15:37:09;28.70;99.90
5246;DHT22;54412;51.206;6.888;2023-08-20T15:39:35;28.50;99.90
5246;DHT22;54412;51.206;6.888;2023-08-20T15:42:01;28.60;99.90
5246;DHT22;54412;51.206;6.888;2023-08-20T15:44:27;28.50;99.90
5246;DHT22;54412;51.206;6.888;2023-08-20T15:46:53;28.40;99.90
5246;DHT22;54412;51.206;6.888;2023-08-20T15:49:19;28.40;99.90
5246;DHT22;54412;51.206;6.888;2023-08-20T15:51:45;28.40;99.90